sensor_id;sensor_type;location;lat;lon;timestamp;temperature;humidity
28374;DHT22;15616;40.148;-102.718;2022-07-18T00:01:49;25.20;45.10
28374;DHT22;15616;40.148;-102.718;2022-07-18T00:04:15;25.20;45.10
28374;DHT22;15616;40.148;-102.718;2022-07-18T00:06:41;25.20;45.10
28374;DHT22;15616;40.148;-102.718;2022-07-18T00:09:07;25.10;45.00
28374;DHT22;15616;40.148;-102.718;2022-07-18T00:11:33;25.10;45.00
28374;DHT22;15616;40.148;-102.718;2022-07-18T00:13:59;25.10;45.10
28374;DHT22;15616;40.148;-102.718;2022-07-18T00:16:25;25.10;45.10
28374;DHT22;15616;40.148;-102.718;2022-07-18T00:18:51;25.10;45.10
28374;DHT22;15616;40.148;-102.718;2022-07-18T00:21:17;25.10;45.80
28374;DHT22;15616;40.148;-102.718;2022-07-18T00:23:43;25.10;45.10
28374;DHT22;15616;40.148;-102.718;2022-07-18T00:26:09;25.10;45.10
28374;DHT22;15616;40.148;-102.718;2022-07-18T00:28:35;25.10;45.10
28374;DHT22;15616;40.148;-102.718;2022-07-18T00:31:01;25.10;45.10
28374;DHT22;15616;40.148;-102.718;2022-07-18T00:33:27;25.10;45.10
28374;DHT22;15616;40.148;-102.718;2022-07-18T00:35:53;25.10;45.10
28374;DHT22;15616;40.148;-102.718;2022-07-18T00:38:18;25.10;45.10
28374;DHT22;15616;40.148;-102.718;2022-07-18T00:40:45;25.10;45.10
28374;DHT22;15616;40.148;-102.718;2022-07-18T00:43:14;25.10;45.10
28374;DHT22;15616;40.148;-102.718;2022-07-18T00:45:45;25.10;45.10
28374;DHT22;15616;40.148;-102.718;2022-07-18T00:48:12;25.10;45.10
28374;DHT22;15616;40.148;-102.718;2022-07-18T00:50:38;25.10;45.20
28374;DHT22;15616;40.148;-102.718;2022-07-18T00:53:05;25.00;45.10
28374;DHT22;15616;40.148;-102.718;2022-07-18T00:55:32;25.10;45.20
28374;DHT22;15616;40.148;-102.718;2022-07-18T00:57:58;25.10;45.20
28374;DHT22;15616;40.148;-102.718;2022-07-18T01:00:24;25.10;45.20
28374;DHT22;15616;40.148;-102.718;2022-07-18T01:03:08;25.10;45.20
28374;DHT22;15616;40.148;-102.718;2022-07-18T01:05:34;25.00;45.10
28374;DHT22;15616;40.148;-102.718;2022-07-18T01:08:01;25.10;45.20
28374;DHT22;15616;40.148;-102.718;2022-07-18T01:10:27;25.10;45.20
28374;DHT22;15616;40.148;-102.718;2022-07-18T01:12:53;25.00;45.20
28374;DHT22;15616;40.148;-102.718;2022-07-18T01:15:19;25.00;45.20
28374;DHT22;15616;40.148;-102.718;2022-07-18T01:17:45;25.00;45.20
28374;DHT22;15616;40.148;-102.718;2022-07-18T01:20:12;25.00;45.20
28374;DHT22;15616;40.148;-102.718;2022-07-18T01:22:38;25.00;45.20
28374;DHT22;15616;40.148;-102.718;2022-07-18T01:25:07;25.00;45.20
28374;DHT22;15616;40.148;-102.718;2022-07-18T01:27:33;25.00;45.20
28374;DHT22;15616;40.148;-102.718;2022-07-18T01:29:59;25.00;45.20
28374;DHT22;15616;40.148;-102.718;2022-07-18T01:32:25;25.00;45.20
28374;DHT22;15616;40.148;-102.718;2022-07-18T01:34:51;25.00;45.20
28374;DHT22;15616;40.148;-102.718;2022-07-18T01:37:18;25.00;45.20
28374;DHT22;15616;40.148;-102.718;2022-07-18T01:39:45;25.00;45.20
28374;DHT22;15616;40.148;-102.718;2022-07-18T01:42:12;25.00;45.20
28374;DHT22;15616;40.148;-102.718;2022-07-18T01:44:39;25.00;45.20
28374;DHT22;15616;40.148;-102.718;2022-07-18T01:47:07;25.00;45.30
28374;DHT22;15616;40.148;-102.718;2022-07-18T01:49:34;25.00;46.00
28374;DHT22;15616;40.148;-102.718;2022-07-18T01:52:00;25.00;45.30
28374;DHT22;15616;40.148;-102.718;2022-07-18T01:54:29;25.00;45.30
28374;DHT22;15616;40.148;-102.718;2022-07-18T01:56:55;25.00;45.20
28374;DHT22;15616;40.148;-102.718;2022-07-18T01:59:22;25.00;45.30
28374;DHT22;15616;40.148;-102.718;2022-07-18T02:01:49;24.90;45.20
28374;DHT22;15616;40.148;-102.718;2022-07-18T02:04:15;24.90;45.20
28374;DHT22;15616;40.148;-102.718;2022-07-18T02:06:41;24.90;45.20
28374;DHT22;15616;40.148;-102.718;2022-07-18T02:09:08;24.90;45.30
28374;DHT22;15616;40.148;-102.718;2022-07-18T02:11:35;24.90;45.40
28374;DHT22;15616;40.148;-102.718;2022-07-18T02:14:02;24.90;45.30
28374;DHT22;15616;40.148;-102.718;2022-07-18T02:16:28;24.90;45.40
28374;DHT22;15616;40.148;-102.718;2022-07-18T02:18:55;24.90;45.30
28374;DHT22;15616;40.148;-102.718;2022-07-18T02:21:21;24.90;45.40
28374;DHT22;15616;40.148;-102.718;2022-07-18T02:23:47;24.90;45.30
28374;DHT22;15616;40.148;-102.718;2022-07-18T02:26:13;24.90;45.40
28374;DHT22;15616;40.148;-102.718;2022-07-18T02:28:39;24.90;45.30
28374;DHT22;15616;40.148;-102.718;2022-07-18T02:31:05;24.90;45.30
28374;DHT22;15616;40.148;-102.718;2022-07-18T02:33:32;24.90;45.40
28374;DHT22;15616;40.148;-102.718;2022-07-18T02:35:58;24.90;45.40
28374;DHT22;15616;40.148;-102.718;2022-07-18T02:38:24;24.90;45.40
28374;DHT22;15616;40.148;-102.718;2022-07-18T02:40:50;24.90;45.40
28374;DHT22;15616;40.148;-102.718;2022-07-18T02:43:16;24.90;45.40
28374;DHT22;15616;40.148;-102.718;2022-07-18T02:45:42;24.90;45.40
28374;DHT22;15616;40.148;-102.718;2022-07-18T02:48:08;24.90;46.10
28374;DHT22;15616;40.148;-102.718;2022-07-18T02:50:34;24.90;45.40
28374;DHT22;15616;40.148;-102.718;2022-07-18T02:53:00;24.90;45.40
28374;DHT22;15616;40.148;-102.718;2022-07-18T02:55:26;24.90;45.50
28374;DHT22;15616;40.148;-102.718;2022-07-18T02:57:52;24.90;45.50
28374;DHT22;15616;40.148;-102.718;2022-07-18T03:00:18;24.90;45.50
28374;DHT22;15616;40.148;-102.718;2022-07-18T03:02:44;24.90;45.50
28374;DHT22;15616;40.148;-102.718;2022-07-18T03:05:11;24.90;45.50
28374;DHT22;15616;40.148;-102.718;2022-07-18T03:07:37;24.90;45.50
28374;DHT22;15616;40.148;-102.718;2022-07-18T03:10:05;24.90;45.50
28374;DHT22;15616;40.148;-102.718;2022-07-18T03:12:31;24.90;45.60
28374;DHT22;15616;40.148;-102.718;2022-07-18T03:14:57;24.90;45.60
28374;DHT22;15616;40.148;-102.718;2022-07-18T03:17:25;24.90;45.60
28374;DHT22;15616;40.148;-102.718;2022-07-18T03:19:50;24.90;45.60
28374;DHT22;15616;40.148;-102.718;2022-07-18T03:22:16;24.90;45.60
28374;DHT22;15616;40.148;-102.718;2022-07-18T03:24:42;24.80;45.50
28374;DHT22;15616;40.148;-102.718;2022-07-18T03:27:08;24.90;45.60
28374;DHT22;15616;40.148;-102.718;2022-07-18T03:29:34;24.90;45.50
28374;DHT22;15616;40.148;-102.718;2022-07-18T03:32:00;24.90;45.50
28374;DHT22;15616;40.148;-102.718;2022-07-18T03:34:26;24.90;45.50
28374;DHT22;15616;40.148;-102.718;2022-07-18T03:36:52;24.80;45.50
28374;DHT22;15616;40.148;-102.718;2022-07-18T03:39:18;24.80;46.20
28374;DHT22;15616;40.148;-102.718;2022-07-18T03:41:44;24.90;45.60
28374;DHT22;15616;40.148;-102.718;2022-07-18T03:44:10;24.90;45.60
28374;DHT22;15616;40.148;-102.718;2022-07-18T03:46:36;24.80;45.50
28374;DHT22;15616;40.148;-102.718;2022-07-18T03:49:03;24.80;45.60
28374;DHT22;15616;40.148;-102.718;2022-07-18T03:51:29;24.80;45.60
28374;DHT22;15616;40.148;-102.718;2022-07-18T03:53:55;24.80;45.50
28374;DHT22;15616;40.148;-102.718;2022-07-18T03:56:21;24.80;45.60
28374;DHT22;15616;40.148;-102.718;2022-07-18T03:58:47;24.80;45.60
28374;DHT22;15616;40.148;-102.718;2022-07-18T04:01:12;24.80;45.50
28374;DHT22;15616;40.148;-102.718;2022-07-18T04:03:39;24.80;45.50
28374;DHT22;15616;40.148;-102.718;2022-07-18T04:06:05;24.80;45.60
28374;DHT22;15616;40.148;-102.718;2022-07-18T04:08:31;24.80;45.60
28374;DHT22;15616;40.148;-102.718;2022-07-18T04:10:57;24.80;45.60
28374;DHT22;15616;40.148;-102.718;2022-07-18T04:13:23;24.80;45.60
28374;DHT22;15616;40.148;-102.718;2022-07-18T04:15:48;24.80;45.70
28374;DHT22;15616;40.148;-102.718;2022-07-18T04:18:14;24.80;45.60
28374;DHT22;15616;40.148;-102.718;2022-07-18T04:20:40;24.80;45.60
28374;DHT22;15616;40.148;-102.718;2022-07-18T04:23:08;24.80;45.50
28374;DHT22;15616;40.148;-102.718;2022-07-18T04:25:39;24.80;45.50
28374;DHT22;15616;40.148;-102.718;2022-07-18T04:28:06;24.90;45.50
28374;DHT22;15616;40.148;-102.718;2022-07-18T04:30:33;24.80;45.40
28374;DHT22;15616;40.148;-102.718;2022-07-18T04:33:04;24.90;45.50
28374;DHT22;15616;40.148;-102.718;2022-07-18T04:35:31;24.90;45.50
28374;DHT22;15616;40.148;-102.718;2022-07-18T04:37:57;24.90;45.40
28374;DHT22;15616;40.148;-102.718;2022-07-18T04:40:24;24.90;45.40
28374;DHT22;15616;40.148;-102.718;2022-07-18T04:42:50;24.90;45.30
28374;DHT22;15616;40.148;-102.718;2022-07-18T04:45:16;25.00;45.30
28374;DHT22;15616;40.148;-102.718;2022-07-18T04:47:43;25.00;45.20
28374;DHT22;15616;40.148;-102.718;2022-07-18T04:50:10;25.00;45.00
28374;DHT22;15616;40.148;-102.718;2022-07-18T04:52:41;25.00;45.10
28374;DHT22;15616;40.148;-102.718;2022-07-18T04:55:08;25.00;45.20
28374;DHT22;15616;40.148;-102.718;2022-07-18T04:57:35;25.00;45.20
28374;DHT22;15616;40.148;-102.718;2022-07-18T05:00:12;24.90;45.20
28374;DHT22;15616;40.148;-102.718;2022-07-18T05:02:43;24.90;45.20
28374;DHT22;15616;40.148;-102.718;2022-07-18T05:05:10;24.90;45.30
28374;DHT22;15616;40.148;-102.718;2022-07-18T05:07:38;24.90;45.40
28374;DHT22;15616;40.148;-102.718;2022-07-18T05:10:06;24.80;45.40
28374;DHT22;15616;40.148;-102.718;2022-07-18T05:12:40;24.80;45.40
28374;DHT22;15616;40.148;-102.718;2022-07-18T05:15:09;24.90;45.40
28374;DHT22;15616;40.148;-102.718;2022-07-18T05:17:36;24.80;45.40
28374;DHT22;15616;40.148;-102.718;2022-07-18T05:20:11;24.80;45.40
28374;DHT22;15616;40.148;-102.718;2022-07-18T05:22:37;24.80;45.50
28374;DHT22;15616;40.148;-102.718;2022-07-18T05:25:05;24.70;45.40
28374;DHT22;15616;40.148;-102.718;2022-07-18T05:27:32;24.70;45.40
28374;DHT22;15616;40.148;-102.718;2022-07-18T05:29:58;24.70;45.50
28374;DHT22;15616;40.148;-102.718;2022-07-18T05:32:27;24.70;45.50
28374;DHT22;15616;40.148;-102.718;2022-07-18T05:34:53;24.70;45.50
28374;DHT22;15616;40.148;-102.718;2022-07-18T05:37:19;24.80;45.50
28374;DHT22;15616;40.148;-102.718;2022-07-18T05:39:46;24.80;45.50
28374;DHT22;15616;40.148;-102.718;2022-07-18T05:42:12;24.80;45.60
28374;DHT22;15616;40.148;-102.718;2022-07-18T05:44:38;24.80;45.40
28374;DHT22;15616;40.148;-102.718;2022-07-18T05:47:04;24.80;45.50
28374;DHT22;15616;40.148;-102.718;2022-07-18T05:49:30;24.80;45.50
28374;DHT22;15616;40.148;-102.718;2022-07-18T05:51:56;24.90;45.50
28374;DHT22;15616;40.148;-102.718;2022-07-18T05:54:22;24.90;45.40
28374;DHT22;15616;40.148;-102.718;2022-07-18T05:56:49;24.90;45.40
28374;DHT22;15616;40.148;-102.718;2022-07-18T05:59:16;24.80;45.30
28374;DHT22;15616;40.148;-102.718;2022-07-18T06:01:42;24.90;45.30
28374;DHT22;15616;40.148;-102.718;2022-07-18T06:04:09;24.90;45.30
28374;DHT22;15616;40.148;-102.718;2022-07-18T06:06:35;24.90;45.30
28374;DHT22;15616;40.148;-102.718;2022-07-18T06:09:01;24.90;45.30
28374;DHT22;15616;40.148;-102.718;2022-07-18T06:11:27;24.90;45.40
28374;DHT22;15616;40.148;-102.718;2022-07-18T06:13:53;24.80;45.30
28374;DHT22;15616;40.148;-102.718;2022-07-18T06:16:19;24.80;45.40
28374;DHT22;15616;40.148;-102.718;2022-07-18T06:18:45;24.80;45.40
28374;DHT22;15616;40.148;-102.718;2022-07-18T06:21:10;24.70;45.30
28374;DHT22;15616;40.148;-102.718;2022-07-18T06:23:37;24.70;45.30
28374;DHT22;15616;40.148;-102.718;2022-07-18T06:26:03;24.70;45.20
28374;DHT22;15616;40.148;-102.718;2022-07-18T06:28:29;24.70;45.20
28374;DHT22;15616;40.148;-102.718;2022-07-18T06:30:55;24.70;45.00
28374;DHT22;15616;40.148;-102.718;2022-07-18T06:33:21;24.70;45.00
28374;DHT22;15616;40.148;-102.718;2022-07-18T06:35:47;24.70;44.90
28374;DHT22;15616;40.148;-102.718;2022-07-18T06:38:14;24.70;44.90
28374;DHT22;15616;40.148;-102.718;2022-07-18T06:40:41;24.70;44.90
28374;DHT22;15616;40.148;-102.718;2022-07-18T06:43:07;24.70;44.90
28374;DHT22;15616;40.148;-102.718;2022-07-18T06:45:33;24.80;44.90
28374;DHT22;15616;40.148;-102.718;2022-07-18T06:48:00;24.80;44.80
28374;DHT22;15616;40.148;-102.718;2022-07-18T06:50:26;24.80;44.90
28374;DHT22;15616;40.148;-102.718;2022-07-18T06:52:52;24.80;44.80
28374;DHT22;15616;40.148;-102.718;2022-07-18T06:55:18;24.80;44.80
28374;DHT22;15616;40.148;-102.718;2022-07-18T06:57:45;24.80;44.80
28374;DHT22;15616;40.148;-102.718;2022-07-18T07:00:12;24.80;44.90
28374;DHT22;15616;40.148;-102.718;2022-07-18T07:02:47;24.80;45.00
28374;DHT22;15616;40.148;-102.718;2022-07-18T07:05:14;24.80;45.00
28374;DHT22;15616;40.148;-102.718;2022-07-18T07:07:42;24.80;45.10
28374;DHT22;15616;40.148;-102.718;2022-07-18T07:10:08;24.80;45.10
28374;DHT22;15616;40.148;-102.718;2022-07-18T07:12:41;24.90;45.10
28374;DHT22;15616;40.148;-102.718;2022-07-18T07:15:08;24.90;45.00
28374;DHT22;15616;40.148;-102.718;2022-07-18T07:17:35;24.90;45.10
28374;DHT22;15616;40.148;-102.718;2022-07-18T07:20:02;24.90;45.10
28374;DHT22;15616;40.148;-102.718;2022-07-18T07:22:28;24.90;45.10
28374;DHT22;15616;40.148;-102.718;2022-07-18T07:24:54;24.90;45.10
28374;DHT22;15616;40.148;-102.718;2022-07-18T07:27:20;24.90;45.20
28374;DHT22;15616;40.148;-102.718;2022-07-18T07:29:46;24.90;45.10
28374;DHT22;15616;40.148;-102.718;2022-07-18T07:32:12;24.90;45.10
28374;DHT22;15616;40.148;-102.718;2022-07-18T07:34:38;24.90;45.10
28374;DHT22;15616;40.148;-102.718;2022-07-18T07:37:04;24.90;45.00
28374;DHT22;15616;40.148;-102.718;2022-07-18T07:39:30;25.00;45.00
28374;DHT22;15616;40.148;-102.718;2022-07-18T07:41:56;24.90;45.00
28374;DHT22;15616;40.148;-102.718;2022-07-18T07:44:22;25.00;45.00
28374;DHT22;15616;40.148;-102.718;2022-07-18T07:46:48;25.00;45.00
28374;DHT22;15616;40.148;-102.718;2022-07-18T07:49:15;25.00;45.00
28374;DHT22;15616;40.148;-102.718;2022-07-18T07:51:41;25.00;45.00
28374;DHT22;15616;40.148;-102.718;2022-07-18T07:54:07;25.00;45.00
28374;DHT22;15616;40.148;-102.718;2022-07-18T07:56:33;25.00;45.00
28374;DHT22;15616;40.148;-102.718;2022-07-18T07:58:59;25.00;45.00
28374;DHT22;15616;40.148;-102.718;2022-07-18T08:01:27;25.00;45.00
28374;DHT22;15616;40.148;-102.718;2022-07-18T08:03:53;25.10;45.00
28374;DHT22;15616;40.148;-102.718;2022-07-18T08:06:19;25.10;45.00
28374;DHT22;15616;40.148;-102.718;2022-07-18T08:08:45;25.00;44.90
28374;DHT22;15616;40.148;-102.718;2022-07-18T08:11:11;25.10;45.00
28374;DHT22;15616;40.148;-102.718;2022-07-18T08:13:37;25.10;44.90
28374;DHT22;15616;40.148;-102.718;2022-07-18T08:16:03;25.10;44.90
28374;DHT22;15616;40.148;-102.718;2022-07-18T08:18:29;25.10;44.90
28374;DHT22;15616;40.148;-102.718;2022-07-18T08:20:55;25.10;44.90
28374;DHT22;15616;40.148;-102.718;2022-07-18T08:23:21;25.10;44.80
28374;DHT22;15616;40.148;-102.718;2022-07-18T08:25:47;25.10;44.80
28374;DHT22;15616;40.148;-102.718;2022-07-18T08:28:13;25.20;45.40
28374;DHT22;15616;40.148;-102.718;2022-07-18T08:30:39;25.20;44.80
28374;DHT22;15616;40.148;-102.718;2022-07-18T08:33:06;25.20;44.70
28374;DHT22;15616;40.148;-102.718;2022-07-18T08:35:33;25.30;44.70
28374;DHT22;15616;40.148;-102.718;2022-07-18T08:38:00;25.30;44.70
28374;DHT22;15616;40.148;-102.718;2022-07-18T08:40:27;25.30;44.70
28374;DHT22;15616;40.148;-102.718;2022-07-18T08:42:55;25.30;44.60
28374;DHT22;15616;40.148;-102.718;2022-07-18T08:45:22;25.30;44.60
28374;DHT22;15616;40.148;-102.718;2022-07-18T08:47:49;25.30;44.70
28374;DHT22;15616;40.148;-102.718;2022-07-18T08:50:15;25.30;44.60
28374;DHT22;15616;40.148;-102.718;2022-07-18T08:52:41;25.30;44.60
28374;DHT22;15616;40.148;-102.718;2022-07-18T08:55:08;25.30;44.50
28374;DHT22;15616;40.148;-102.718;2022-07-18T08:57:34;25.30;44.40
28374;DHT22;15616;40.148;-102.718;2022-07-18T09:00:03;25.30;44.50
28374;DHT22;15616;40.148;-102.718;2022-07-18T09:02:29;25.40;44.50
28374;DHT22;15616;40.148;-102.718;2022-07-18T09:04:55;25.40;44.50
28374;DHT22;15616;40.148;-102.718;2022-07-18T09:07:31;25.40;44.50
28374;DHT22;15616;40.148;-102.718;2022-07-18T09:10:04;25.40;44.50
28374;DHT22;15616;40.148;-102.718;2022-07-18T09:12:30;25.40;44.40
28374;DHT22;15616;40.148;-102.718;2022-07-18T09:14:57;25.50;44.50
28374;DHT22;15616;40.148;-102.718;2022-07-18T09:17:29;25.40;44.40
28374;DHT22;15616;40.148;-102.718;2022-07-18T09:20:11;25.40;44.50
28374;DHT22;15616;40.148;-102.718;2022-07-18T09:22:41;25.50;44.50
28374;DHT22;15616;40.148;-102.718;2022-07-18T09:25:19;25.50;44.40
28374;DHT22;15616;40.148;-102.718;2022-07-18T09:27:50;25.50;44.50
28374;DHT22;15616;40.148;-102.718;2022-07-18T09:30:32;25.50;44.40
28374;DHT22;15616;40.148;-102.718;2022-07-18T09:35:32;25.60;44.30
28374;DHT22;15616;40.148;-102.718;2022-07-18T09:38:10;25.60;44.20
28374;DHT22;15616;40.148;-102.718;2022-07-18T09:40:42;25.60;44.20
28374;DHT22;15616;40.148;-102.718;2022-07-18T09:43:10;25.60;44.20
28374;DHT22;15616;40.148;-102.718;2022-07-18T09:45:53;25.60;44.20
28374;DHT22;15616;40.148;-102.718;2022-07-18T09:48:21;25.60;44.10
28374;DHT22;15616;40.148;-102.718;2022-07-18T09:50:52;25.60;44.20
28374;DHT22;15616;40.148;-102.718;2022-07-18T09:53:20;25.60;44.10
28374;DHT22;15616;40.148;-102.718;2022-07-18T09:56:00;25.60;44.10
28374;DHT22;15616;40.148;-102.718;2022-07-18T09:58:28;25.70;44.20
28374;DHT22;15616;40.148;-102.718;2022-07-18T10:00:57;25.70;44.10
28374;DHT22;15616;40.148;-102.718;2022-07-18T10:03:24;25.60;44.10
28374;DHT22;15616;40.148;-102.718;2022-07-18T10:05:52;25.70;44.20
28374;DHT22;15616;40.148;-102.718;2022-07-18T10:08:24;25.60;44.10
28374;DHT22;15616;40.148;-102.718;2022-07-18T10:10:52;25.70;44.20
28374;DHT22;15616;40.148;-102.718;2022-07-18T10:13:20;25.70;44.20
28374;DHT22;15616;40.148;-102.718;2022-07-18T10:15:48;25.70;44.10
28374;DHT22;15616;40.148;-102.718;2022-07-18T10:18:17;25.70;44.10
28374;DHT22;15616;40.148;-102.718;2022-07-18T10:20:52;25.70;44.10
28374;DHT22;15616;40.148;-102.718;2022-07-18T10:28:31;25.70;44.80
28374;DHT22;15616;40.148;-102.718;2022-07-18T10:31:13;25.70;44.10
28374;DHT22;15616;40.148;-102.718;2022-07-18T10:33:45;25.70;44.10
28374;DHT22;15616;40.148;-102.718;2022-07-18T10:36:14;25.80;44.10
28374;DHT22;15616;40.148;-102.718;2022-07-18T10:39:13;25.80;44.00
28374;DHT22;15616;40.148;-102.718;2022-07-18T10:47:06;25.90;43.90
28374;DHT22;15616;40.148;-102.718;2022-07-18T11:00:29;26.00;43.60
28374;DHT22;15616;40.148;-102.718;2022-07-18T11:13:28;26.20;43.30
28374;DHT22;15616;40.148;-102.718;2022-07-18T11:16:00;26.20;43.40
28374;DHT22;15616;40.148;-102.718;2022-07-18T11:26:23;26.20;43.30
28374;DHT22;15616;40.148;-102.718;2022-07-18T11:31:27;26.30;43.00
28374;DHT22;15616;40.148;-102.718;2022-07-18T11:33:54;26.30;43.10
28374;DHT22;15616;40.148;-102.718;2022-07-18T11:36:22;26.30;43.10
28374;DHT22;15616;40.148;-102.718;2022-07-18T11:38:59;26.30;43.00
28374;DHT22;15616;40.148;-102.718;2022-07-18T11:41:26;26.30;43.00
28374;DHT22;15616;40.148;-102.718;2022-07-18T11:43:53;26.30;43.70
28374;DHT22;15616;40.148;-102.718;2022-07-18T11:46:23;26.40;43.00
28374;DHT22;15616;40.148;-102.718;2022-07-18T11:49:00;26.40;42.90
28374;DHT22;15616;40.148;-102.718;2022-07-18T11:51:37;26.40;43.00
28374;DHT22;15616;40.148;-102.718;2022-07-18T11:54:04;26.40;43.00
28374;DHT22;15616;40.148;-102.718;2022-07-18T11:56:30;26.40;43.00
28374;DHT22;15616;40.148;-102.718;2022-07-18T11:58:56;26.40;42.90
28374;DHT22;15616;40.148;-102.718;2022-07-18T12:01:32;26.40;42.90
28374;DHT22;15616;40.148;-102.718;2022-07-18T12:03:59;26.40;42.90
28374;DHT22;15616;40.148;-102.718;2022-07-18T12:06:25;26.40;42.90
28374;DHT22;15616;40.148;-102.718;2022-07-18T12:08:55;26.50;42.90
28374;DHT22;15616;40.148;-102.718;2022-07-18T12:11:33;26.50;42.90
28374;DHT22;15616;40.148;-102.718;2022-07-18T12:19:13;26.50;42.90
28374;DHT22;15616;40.148;-102.718;2022-07-18T12:24:25;26.50;42.80
28374;DHT22;15616;40.148;-102.718;2022-07-18T12:27:12;26.60;42.70
28374;DHT22;15616;40.148;-102.718;2022-07-18T12:30:16;26.50;42.70
28374;DHT22;15616;40.148;-102.718;2022-07-18T12:40:18;26.60;42.90
28374;DHT22;15616;40.148;-102.718;2022-07-18T12:42:44;26.60;42.80
28374;DHT22;15616;40.148;-102.718;2022-07-18T12:45:11;26.60;42.80
28374;DHT22;15616;40.148;-102.718;2022-07-18T12:47:38;26.60;42.70
28374;DHT22;15616;40.148;-102.718;2022-07-18T12:50:08;26.60;42.60
28374;DHT22;15616;40.148;-102.718;2022-07-18T12:52:34;26.60;42.60
28374;DHT22;15616;40.148;-102.718;2022-07-18T12:55:00;26.60;42.50
28374;DHT22;15616;40.148;-102.718;2022-07-18T12:57:26;26.60;42.50
28374;DHT22;15616;40.148;-102.718;2022-07-18T12:59:52;26.60;42.30
28374;DHT22;15616;40.148;-102.718;2022-07-18T13:02:18;26.60;42.30
28374;DHT22;15616;40.148;-102.718;2022-07-18T13:04:45;26.60;42.30
28374;DHT22;15616;40.148;-102.718;2022-07-18T13:07:11;26.60;42.30
28374;DHT22;15616;40.148;-102.718;2022-07-18T13:09:37;26.70;42.20
28374;DHT22;15616;40.148;-102.718;2022-07-18T13:12:04;26.70;42.20
28374;DHT22;15616;40.148;-102.718;2022-07-18T13:14:30;26.70;42.20
28374;DHT22;15616;40.148;-102.718;2022-07-18T13:16:56;26.70;42.00
28374;DHT22;15616;40.148;-102.718;2022-07-18T13:19:22;26.80;42.00
28374;DHT22;15616;40.148;-102.718;2022-07-18T13:21:48;26.80;42.00
28374;DHT22;15616;40.148;-102.718;2022-07-18T13:24:15;26.80;41.90
28374;DHT22;15616;40.148;-102.718;2022-07-18T13:26:42;26.80;41.80
28374;DHT22;15616;40.148;-102.718;2022-07-18T13:29:08;26.80;41.70
28374;DHT22;15616;40.148;-102.718;2022-07-18T13:31:35;26.90;41.80
28374;DHT22;15616;40.148;-102.718;2022-07-18T13:34:02;26.80;41.80
28374;DHT22;15616;40.148;-102.718;2022-07-18T13:36:29;26.90;41.90
28374;DHT22;15616;40.148;-102.718;2022-07-18T13:38:55;26.80;41.80
28374;DHT22;15616;40.148;-102.718;2022-07-18T13:41:21;26.90;41.90
28374;DHT22;15616;40.148;-102.718;2022-07-18T13:43:47;26.90;41.90
28374;DHT22;15616;40.148;-102.718;2022-07-18T13:46:13;26.90;41.90
28374;DHT22;15616;40.148;-102.718;2022-07-18T13:48:39;26.90;42.50
28374;DHT22;15616;40.148;-102.718;2022-07-18T13:51:06;26.80;41.70
28374;DHT22;15616;40.148;-102.718;2022-07-18T13:53:32;26.90;41.80
28374;DHT22;15616;40.148;-102.718;2022-07-18T13:55:58;26.90;41.60
28374;DHT22;15616;40.148;-102.718;2022-07-18T13:58:24;26.90;41.60
28374;DHT22;15616;40.148;-102.718;2022-07-18T14:00:51;26.90;41.50
28374;DHT22;15616;40.148;-102.718;2022-07-18T14:03:17;26.90;41.50
28374;DHT22;15616;40.148;-102.718;2022-07-18T14:05:43;26.90;41.50
28374;DHT22;15616;40.148;-102.718;2022-07-18T14:08:09;27.00;41.50
28374;DHT22;15616;40.148;-102.718;2022-07-18T14:10:36;27.00;41.40
28374;DHT22;15616;40.148;-102.718;2022-07-18T14:13:02;27.00;41.40
28374;DHT22;15616;40.148;-102.718;2022-07-18T14:15:29;27.00;41.40
28374;DHT22;15616;40.148;-102.718;2022-07-18T14:17:56;27.10;41.40
28374;DHT22;15616;40.148;-102.718;2022-07-18T14:20:23;27.00;41.30
28374;DHT22;15616;40.148;-102.718;2022-07-18T14:22:49;27.10;41.40
28374;DHT22;15616;40.148;-102.718;2022-07-18T14:25:17;27.10;41.30
28374;DHT22;15616;40.148;-102.718;2022-07-18T14:27:43;27.10;41.30
28374;DHT22;15616;40.148;-102.718;2022-07-18T14:30:13;27.10;41.30
28374;DHT22;15616;40.148;-102.718;2022-07-18T14:32:40;27.10;41.20
28374;DHT22;15616;40.148;-102.718;2022-07-18T14:35:08;27.10;41.30
28374;DHT22;15616;40.148;-102.718;2022-07-18T14:37:34;27.10;41.30
28374;DHT22;15616;40.148;-102.718;2022-07-18T14:40:00;27.10;41.30
28374;DHT22;15616;40.148;-102.718;2022-07-18T14:42:26;27.10;41.40
28374;DHT22;15616;40.148;-102.718;2022-07-18T14:44:53;27.10;41.40
28374;DHT22;15616;40.148;-102.718;2022-07-18T14:47:19;27.10;41.50
28374;DHT22;15616;40.148;-102.718;2022-07-18T14:49:46;27.10;41.50
28374;DHT22;15616;40.148;-102.718;2022-07-18T14:52:12;27.10;41.50
28374;DHT22;15616;40.148;-102.718;2022-07-18T14:54:38;27.10;41.50
28374;DHT22;15616;40.148;-102.718;2022-07-18T14:57:04;27.10;41.40
28374;DHT22;15616;40.148;-102.718;2022-07-18T14:59:31;27.10;41.30
28374;DHT22;15616;40.148;-102.718;2022-07-18T15:01:58;27.20;41.40
28374;DHT22;15616;40.148;-102.718;2022-07-18T15:04:25;27.20;41.30
28374;DHT22;15616;40.148;-102.718;2022-07-18T15:06:51;27.20;41.30
28374;DHT22;15616;40.148;-102.718;2022-07-18T15:09:17;27.30;41.30
28374;DHT22;15616;40.148;-102.718;2022-07-18T15:11:43;27.20;41.10
28374;DHT22;15616;40.148;-102.718;2022-07-18T15:14:09;27.30;41.10
28374;DHT22;15616;40.148;-102.718;2022-07-18T15:16:35;27.40;41.20
28374;DHT22;15616;40.148;-102.718;2022-07-18T15:19:03;27.50;41.00
28374;DHT22;15616;40.148;-102.718;2022-07-18T15:21:29;27.60;40.80
28374;DHT22;15616;40.148;-102.718;2022-07-18T15:23:55;27.70;40.80
28374;DHT22;15616;40.148;-102.718;2022-07-18T15:26:21;27.70;40.70
28374;DHT22;15616;40.148;-102.718;2022-07-18T15:28:47;27.70;40.60
28374;DHT22;15616;40.148;-102.718;2022-07-18T15:31:13;27.70;40.60
28374;DHT22;15616;40.148;-102.718;2022-07-18T15:33:38;27.60;40.60
28374;DHT22;15616;40.148;-102.718;2022-07-18T15:36:05;27.60;40.70
28374;DHT22;15616;40.148;-102.718;2022-07-18T15:38:30;27.50;40.80
28374;DHT22;15616;40.148;-102.718;2022-07-18T15:40:56;27.40;40.80
28374;DHT22;15616;40.148;-102.718;2022-07-18T15:43:22;27.40;40.90
28374;DHT22;15616;40.148;-102.718;2022-07-18T15:45:48;27.40;41.00
28374;DHT22;15616;40.148;-102.718;2022-07-18T15:48:14;27.30;40.90
28374;DHT22;15616;40.148;-102.718;2022-07-18T15:50:40;27.30;41.00